This is the latest recevied weather packets stored in our database for station/object DB0RV-13. If no packets are shown the sender has not sent any weather packets the latest 10 day(s).
| Time | Temp. | Humidity | Pressure | Rain* | Wind** | Luminosity | Snow |
|---|---|---|---|---|---|---|---|
| 1778077503 | 9.44° C | 88% | 1006.5 hPa | - | - | - | - |
| 1778077202 | 10° C | 85% | 1006.5 hPa | - | - | - | - |
| 1778076902 | 10° C | 81% | 1006.5 hPa | - | - | - | - |
| 1778076602 | 11.67° C | 74% | 1006.2 hPa | - | - | - | - |
| 1778076302 | 13.89° C | 71% | 1005.9 hPa | - | - | - | - |
| 1778076002 | 13.89° C | 71% | 1005.8 hPa | - | - | - | - |
| 1778075702 | 14.44° C | 71% | 1005.6 hPa | - | - | - | - |
| 1778075401 | 14.44° C | 71% | 1005.5 hPa | - | - | - | - |
| 1778075102 | 15° C | 70% | 1005.5 hPa | - | - | - | - |
| 1778074802 | 15° C | 68% | 1005.5 hPa | - | - | - | - |
| 1778074502 | 15° C | 70% | 1005.4 hPa | - | - | - | - |
| 1778074202 | 15° C | 69% | 1005.5 hPa | - | - | - | - |
| 1778073902 | 14.44° C | 70% | 1005.5 hPa | - | - | - | - |
| 1778073603 | 15° C | 72% | 1005.4 hPa | - | - | - | - |
| 1778073302 | 15° C | 70% | 1005.5 hPa | - | - | - | - |
| 1778073002 | 15° C | 73% | 1005.4 hPa | - | - | - | - |
| 1778072701 | 14.44° C | 74% | 1005.4 hPa | - | - | - | - |
| 1778072402 | 13.89° C | 73% | 1005.3 hPa | - | - | - | - |
| 1778072102 | 13.89° C | 73% | 1005.6 hPa | - | - | - | - |
| 1778071802 | 13.89° C | 74% | 1005.7 hPa | - | - | - | - |
| 1778071502 | 13.89° C | 73% | 1005.6 hPa | - | - | - | - |
| 1778071201 | 13.89° C | 71% | 1005.7 hPa | - | - | - | - |
| 1778070902 | 14.44° C | 69% | 1005.5 hPa | - | - | - | - |
| 1778070602 | 14.44° C | 68% | 1005.6 hPa | - | - | - | - |
| 1778070302 | 14.44° C | 66% | 1005.5 hPa | - | - | - | - |
* Rain since midnight (hover to see other rain measurements)
** Current wind speed in m/s (hover to see current wind gust speed)